ADDS TAF Board (Experimental) INFO Settings
IDs: Format: Expanded Condensed

KMIA - Miami Intl, FL, US

Issued at 2338 UTC 29 Aug 2016
Updated at 0115 UTC 30 Aug 2016
Time0053Z 30/02Z 30/03Z 30/04Z 30/05Z 30/06Z 30/07Z 30/08Z 30/09Z 30/10Z 30/11Z 30/12Z 30/13Z 30/14Z
Type OBS PRVL PRVL PRVL PRVL PRVL PRVL PRVL PRVL PRVL PRVL PRVL PRVL PRVL
VIS 10 >6 >6 >6 >6 >6 >6 >6 >6 >6 >6 >6 >6 >6
CIG 140 60 60 60 60 60 60 60 60 60 60 100 100 100
Cover BKN OVC OVC OVC OVC OVC OVC OVC OVC OVC OVC BKN BKN BKN
FltCat VFR VFR VFR VFR VFR VFR VFR VFR VFR VFR VFR VFR VFR VFR
WX -- VCSH VCSH VCSH VCSH VCSH VCSH VCSH VCSH VCSH VCSH VCSH VCSH VCSH
WDir 110 130 130 130 130 130 130 130 130 130 130 170 170 170
WSpd 9 6 6 6 6 6 6 6 6 6 6 8 8 8
WGst -- -- -- -- -- -- -- -- -- -- -- -- -- --
R08/26
XWnd -4 -4 -4 -4 -4 -4 -4 -4 -4 -4 -4 -8 -8 -8
HWnd 8 4 4 4 4 4 4 4 4 4 4 1 1 1
R09/27
XWnd -4 -4 -4 -4 -4 -4 -4 -4 -4 -4 -4 -8 -8 -8
HWnd 8 4 4 4 4 4 4 4 4 4 4 1 1 1
R12/30
XWnd 1 -1 -1 -1 -1 -1 -1 -1 -1 -1 -1 -6 -6 -6
HWnd 9 6 6 6 6 6 6 6 6 6 6 5 5 5

Raw TAF
KMIA 292338Z 3000/3024 13006KT P6SM VCSH SCT025 BKN060 OVC100
  FM301200 17008KT P6SM VCSH SCT025 BKN100 BKN250
  FM301600 17011KT P6SM VCSH SCT025 BKN050


Raw METAR
KMIA 300053Z 11009KT 10SM FEW025 BKN140 BKN250 27/24 A2992 RMK AO2 SLP131 T02670244
KMIA 292353Z 10011KT 10SM FEW014 FEW060 BKN140 BKN250 27/23 A2990 RMK AO2 SLP124 CB DSNT SE-SW MOV NW 60001 T02670233 10289 20250 55001
KMIA 292253Z 14007KT 10SM FEW011 SCT019 SCT060 BKN140 OVC220 27/24 A2989

METAR Board
Radar Display
Forecast Discussion

TAF Board Legend

Potential Impact
Threat None Slight Moderate High
Visibility (sm) ≥5.1 5.1>X≥3 3>X≥1 <1
Ceiling (100 ft) ≥30.1 30.1>X≥10 10>X≥5 <5
Wind Speed (kt) <10 10≤X<20 20≤X<30 ≥30
Wind Gust (kt) <15 15≤X<25 25≤X<35 ≥35
Weather No Wx Reported VCTS,-TS,-FZRA,SN TS,FZRA +TS,+FZRA,+SN